Time;durP1;ratioP1;P1;durP2;ratioP2;P2;SDS_P1;SDS_P2;PMS_P1;PMS_P2;Temp;Humidity;BMP_temperature;BMP_pressure;BME280_temperature;BME280_humidity;BME280_pressure;Samples;Min_cycle;Max_cycle;Signal;HPM_P1;HPM_P2
2024/03/21 00:00:35;;;;;;;12.57;8.98;;;11.50;99.90;;;;;;5071889;28;20037;-74
2024/03/21 00:03:01;;;;;;;11.13;7.68;;;11.30;99.90;;;;;;5070239;28;20036;-74
2024/03/21 00:05:27;;;;;;;13.52;8.48;;;11.40;99.90;;;;;;5070824;28;20040;-74
2024/03/21 00:07:53;;;;;;;11.95;8.35;;;11.40;99.90;;;;;;5071224;28;20085;-74
2024/03/21 00:10:19;;;;;;;13.70;9.32;;;11.30;99.90;;;;;;5070878;28;20169;-74
2024/03/21 00:12:49;;;;;;;16.45;9.90;;;11.40;99.90;;;;;;5070330;28;20040;-74
2024/03/21 00:15:16;;;;;;;17.40;9.77;;;11.40;99.90;;;;;;5070995;28;20040;-74
2024/03/21 00:17:43;;;;;;;14.98;9.27;;;11.40;99.90;;;;;;5070760;28;20037;-74
2024/03/21 00:20:10;;;;;;;13.93;9.32;;;11.30;99.90;;;;;;5070207;28;20048;-74
2024/03/21 00:22:40;;;;;;;13.70;9.32;;;11.20;99.90;;;;;;5069960;28;20518;-74
2024/03/21 00:25:07;;;;;;;14.27;9.38;;;11.20;99.90;;;;;;5070573;28;20032;-74
2024/03/21 00:27:34;;;;;;;13.68;9.43;;;11.20;99.90;;;;;;5072033;28;20060;-74
2024/03/21 00:30:01;;;;;;;13.63;9.52;;;11.20;99.90;;;;;;5070363;28;20040;-74
2024/03/21 00:32:26;;;;;;;12.55;9.35;;;11.30;99.90;;;;;;5071163;28;20047;-74
2024/03/21 00:34:52;;;;;;;13.88;9.25;;;11.30;99.90;;;;;;5053541;28;20041;-74
2024/03/21 00:37:18;;;;;;;13.73;9.13;;;11.30;99.90;;;;;;5070286;28;20044;-74
2024/03/21 00:39:45;;;;;;;12.68;8.93;;;11.20;99.90;;;;;;5071078;28;20097;-74
2024/03/21 00:42:11;;;;;;;11.80;8.75;;;11.30;99.90;;;;;;5069739;28;20036;-74
2024/03/21 00:44:37;;;;;;;14.70;10.13;;;11.20;99.90;;;;;;5071617;28;20397;-74
2024/03/21 00:47:03;;;;;;;13.35;8.55;;;11.20;99.90;;;;;;5053522;28;20036;-74
2024/03/21 00:49:29;;;;;;;13.13;9.45;;;11.30;99.90;;;;;;5069950;28;20036;-74
2024/03/21 00:51:55;;;;;;;14.00;9.43;;;11.20;99.90;;;;;;5069547;28;20153;-74
2024/03/21 00:54:22;;;;;;;12.30;8.98;;;11.30;99.90;;;;;;5071153;28;20043;-74
2024/03/21 00:56:47;;;;;;;14.48;8.90;;;11.20;99.90;;;;;;5071331;28;20492;-74
2024/03/21 00:59:13;;;;;;;15.77;9.15;;;11.20;99.90;;;;;;5071002;28;20040;-74
2024/03/21 01:01:40;;;;;;;17.10;9.80;;;11.30;99.90;;;;;;5069992;28;20123;-74
2024/03/21 01:04:07;;;;;;;13.23;9.32;;;11.10;99.90;;;;;;5052912;28;20434;-74
2024/03/21 01:06:33;;;;;;;12.63;8.98;;;11.30;99.90;;;;;;5070091;28;20037;-74
2024/03/21 01:08:59;;;;;;;15.18;9.55;;;11.10;99.90;;;;;;5069510;28;20109;-74
2024/03/21 01:11:24;;;;;;;14.38;9.50;;;11.10;99.90;;;;;;5069925;28;20036;-74
2024/03/21 01:13:50;;;;;;;19.48;10.18;;;11.20;99.90;;;;;;5070823;28;20409;-74
2024/03/21 01:16:16;;;;;;;16.88;11.25;;;11.20;99.90;;;;;;5069906;28;20416;-74
2024/03/21 01:18:41;;;;;;;18.40;10.80;;;11.20;99.90;;;;;;5069849;28;20083;-74
2024/03/21 01:21:08;;;;;;;18.38;11.40;;;11.20;99.90;;;;;;5070959;28;20043;-74
2024/03/21 01:23:34;;;;;;;18.85;11.88;;;11.20;99.90;;;;;;5070730;28;20028;-74
2024/03/21 01:26:01;;;;;;;20.98;11.85;;;11.20;99.90;;;;;;5069734;28;20481;-74
2024/03/21 01:28:27;;;;;;;24.75;12.98;;;11.20;99.90;;;;;;5053342;28;20453;-74
2024/03/21 01:30:52;;;;;;;21.65;12.90;;;11.20;99.90;;;;;;5070884;28;20123;-75
2024/03/21 01:33:18;;;;;;;22.67;13.57;;;11.10;99.90;;;;;;5069063;28;20043;-74
2024/03/21 01:35:44;;;;;;;22.13;12.57;;;11.00;99.90;;;;;;5069780;28;20403;-74
2024/03/21 01:38:11;;;;;;;20.20;12.43;;;11.20;99.90;;;;;;5070992;28;20039;-74
2024/03/21 01:40:37;;;;;;;18.85;11.93;;;11.00;99.90;;;;;;5073880;28;20037;-74
2024/03/21 01:43:21;;;;;;;21.20;12.23;;;11.20;99.90;;;;;;5080589;28;20044;-74
2024/03/21 01:46:21;;;;;;;23.13;13.55;;;11.10;99.90;;;;;;5081575;28;20040;-74
2024/03/21 01:48:49;;;;;;;23.95;12.95;;;11.00;99.90;;;;;;5081742;28;20101;-74
2024/03/21 01:51:18;;;;;;;21.70;14.32;;;11.00;99.90;;;;;;5080640;28;20048;-74
2024/03/21 01:53:50;;;;;;;27.55;14.77;;;11.10;99.90;;;;;;5078538;28;20128;-74
2024/03/21 01:56:15;;;;;;;25.90;13.85;;;10.90;99.90;;;;;;5071434;28;20496;-74
2024/03/21 01:58:41;;;;;;;24.17;13.60;;;11.00;99.90;;;;;;5070651;28;20077;-74
2024/03/21 02:01:27;;;;;;;22.65;13.65;;;11.10;99.90;;;;;;5071414;28;20040;-74
2024/03/21 02:03:55;;;;;;;24.15;14.32;;;10.90;99.90;;;;;;5070784;28;20029;-74
2024/03/21 02:06:26;;;;;;;22.40;13.15;;;11.00;99.90;;;;;;5070628;28;20041;-74
2024/03/21 02:08:53;;;;;;;25.13;13.30;;;11.00;99.90;;;;;;5070018;28;20084;-74
2024/03/21 02:11:19;;;;;;;20.40;12.20;;;11.00;99.90;;;;;;5054879;28;20123;-74
2024/03/21 02:13:46;;;;;;;22.48;12.75;;;11.00;99.90;;;;;;5072954;28;20044;-74
2024/03/21 02:16:12;;;;;;;24.70;13.10;;;11.00;99.90;;;;;;5073499;28;20058;-74
2024/03/21 02:18:38;;;;;;;21.80;11.80;;;10.90;99.90;;;;;;5074522;28;20045;-74
2024/03/21 02:21:06;;;;;;;20.40;12.38;;;10.80;99.90;;;;;;5072525;28;20039;-74
2024/03/21 02:23:33;;;;;;;21.02;12.43;;;10.90;99.90;;;;;;5072390;28;20082;-74
2024/03/21 02:25:59;;;;;;;25.10;12.57;;;10.90;99.90;;;;;;5072700;28;20048;-74
2024/03/21 02:28:25;;;;;;;23.23;12.73;;;10.90;99.90;;;;;;5074411;28;20040;-74
2024/03/21 02:30:52;;;;;;;22.40;11.70;;;10.80;99.90;;;;;;5074350;28;20570;-74
2024/03/21 02:33:19;;;;;;;23.65;12.75;;;10.80;99.90;;;;;;5073644;28;20079;-74
2024/03/21 02:35:45;;;;;;;14.57;8.85;;;10.80;99.90;;;;;;5072870;28;20041;-74
2024/03/21 02:38:11;;;;;;;12.50;7.50;;;10.60;99.90;;;;;;5072364;28;20043;-74
2024/03/21 02:40:36;;;;;;;10.50;6.57;;;10.70;99.90;;;;;;5073495;28;20514;-74
2024/03/21 02:43:02;;;;;;;10.57;6.55;;;10.60;99.90;;;;;;5071928;28;20124;-74
2024/03/21 02:45:27;;;;;;;10.90;6.28;;;10.40;99.90;;;;;;5072351;28;20040;-74
2024/03/21 02:47:53;;;;;;;13.32;7.28;;;10.40;99.90;;;;;;5072783;28;20427;-74
2024/03/21 02:50:19;;;;;;;9.95;6.70;;;10.20;99.90;;;;;;5072219;28;20032;-74
2024/03/21 02:52:44;;;;;;;14.88;7.88;;;10.20;99.90;;;;;;5071935;28;20036;-74
2024/03/21 02:55:10;;;;;;;10.85;8.10;;;10.10;99.90;;;;;;5073450;28;20032;-74
2024/03/21 02:57:36;;;;;;;14.27;9.13;;;10.10;99.90;;;;;;5072081;28;20048;-74
2024/03/21 03:00:02;;;;;;;14.40;10.45;;;10.00;99.90;;;;;;5071772;28;20037;-74
2024/03/21 03:02:28;;;;;;;17.42;11.75;;;9.80;99.90;;;;;;5071509;28;20088;-74
2024/03/21 03:04:53;;;;;;;17.88;12.30;;;9.70;99.90;;;;;;5072315;28;20067;-74
2024/03/21 03:07:19;;;;;;;21.38;12.85;;;9.70;99.90;;;;;;5072338;28;20548;-74
2024/03/21 03:09:45;;;;;;;22.65;13.82;;;9.60;99.90;;;;;;5073065;28;20120;-74
2024/03/21 03:12:10;;;;;;;20.70;13.52;;;9.50;99.90;;;;;;5071566;28;20037;-74
2024/03/21 03:14:36;;;;;;;26.08;14.25;;;9.40;99.90;;;;;;5071783;28;20059;-74
2024/03/21 03:17:02;;;;;;;23.60;14.48;;;9.30;99.90;;;;;;5071706;28;20044;-74
2024/03/21 03:19:28;;;;;;;20.10;13.52;;;9.10;99.90;;;;;;5071509;28;20469;-74
2024/03/21 03:21:54;;;;;;;20.38;13.07;;;9.10;99.90;;;;;;5071038;28;20040;-74
2024/03/21 03:24:19;;;;;;;18.55;11.15;;;9.20;99.90;;;;;;5071666;28;20040;-74
2024/03/21 03:26:45;;;;;;;17.45;10.27;;;8.90;99.90;;;;;;5071887;28;20715;-74
2024/03/21 03:29:10;;;;;;;17.48;9.80;;;8.90;99.90;;;;;;5071422;28;20040;-74
2024/03/21 03:31:36;;;;;;;16.23;10.07;;;8.80;99.90;;;;;;5072710;28;20094;-74
2024/03/21 03:36:46;;;;;;;23.70;11.38;;;8.80;99.90;;;;;;5071201;28;20045;-74
2024/03/21 03:39:12;;;;;;;21.08;10.48;;;8.70;99.90;;;;;;5071065;28;20043;-74
2024/03/21 03:41:37;;;;;;;22.70;10.40;;;8.70;99.90;;;;;;5072710;28;20036;-74
2024/03/21 03:44:04;;;;;;;17.48;10.30;;;8.60;99.90;;;;;;5072399;28;20082;-74
2024/03/21 03:46:29;;;;;;;20.80;10.80;;;8.60;99.90;;;;;;5072574;28;20028;-74
2024/03/21 03:48:55;;;;;;;22.98;11.00;;;8.60;99.90;;;;;;5054373;28;20488;-74
2024/03/21 03:51:20;;;;;;;25.83;10.50;;;8.60;99.90;;;;;;5071166;28;20044;-74
2024/03/21 03:53:46;;;;;;;19.90;10.57;;;8.50;99.90;;;;;;5070454;28;20134;-74
2024/03/21 03:56:12;;;;;;;18.38;10.30;;;8.60;99.90;;;;;;5054303;28;20040;-74
2024/03/21 03:58:37;;;;;;;18.23;9.43;;;8.40;99.90;;;;;;5072299;28;20040;-74
2024/03/21 04:01:03;;;;;;;17.55;9.07;;;8.50;99.90;;;;;;5070725;28;20036;-74
2024/03/21 04:03:29;;;;;;;16.23;8.13;;;8.50;99.90;;;;;;5071772;28;20032;-74
2024/03/21 04:06:03;;;;;;;20.60;7.07;;;8.40;99.90;;;;;;5070905;28;20462;-74
2024/03/21 04:08:29;;;;;;;18.08;6.78;;;8.40;99.90;;;;;;5070277;28;20076;-74
2024/03/21 04:10:55;;;;;;;16.45;6.65;;;8.40;99.90;;;;;;5070679;28;20137;-74
2024/03/21 04:13:21;;;;;;;19.58;7.90;;;8.30;99.90;;;;;;5070208;28;20522;-74
2024/03/21 04:15:54;;;;;;;15.73;5.53;;;8.30;99.90;;;;;;5070748;28;20040;-74
2024/03/21 04:18:20;;;;;;;24.60;6.35;;;8.20;99.90;;;;;;5070937;28;20048;-74
2024/03/21 04:20:46;;;;;;;14.45;5.35;;;8.20;99.90;;;;;;5070283;28;20028;-74
2024/03/21 04:23:12;;;;;;;16.50;5.45;;;8.10;99.90;;;;;;5070557;28;20044;-74
2024/03/21 04:25:37;;;;;;;15.85;6.15;;;8.10;99.90;;;;;;5070852;28;20415;-74
2024/03/21 04:28:03;;;;;;;17.65;5.63;;;8.10;99.90;;;;;;5071793;28;20033;-74
2024/03/21 04:30:29;;;;;;;12.32;4.20;;;8.10;99.90;;;;;;5070051;28;20040;-74
2024/03/21 04:32:55;;;;;;;17.40;4.18;;;8.10;99.90;;;;;;5069855;28;20450;-74
2024/03/21 04:35:21;;;;;;;10.40;4.07;;;8.10;99.90;;;;;;5053414;28;20044;-74
2024/03/21 04:37:47;;;;;;;11.18;2.63;;;8.00;99.90;;;;;;5070725;28;20056;-74
2024/03/21 04:40:13;;;;;;;6.07;2.65;;;8.00;99.90;;;;;;5070259;28;20044;-74
2024/03/21 04:42:39;;;;;;;9.18;3.00;;;7.80;99.90;;;;;;5070040;28;20127;-74
2024/03/21 04:45:05;;;;;;;8.13;3.10;;;7.80;99.90;;;;;;5070229;28;20504;-74
2024/03/21 04:47:32;;;;;;;15.48;3.72;;;7.80;99.90;;;;;;5070192;28;20133;-74
2024/03/21 04:49:57;;;;;;;5.07;2.75;;;7.70;99.90;;;;;;5069955;28;20178;-74
2024/03/21 04:52:25;;;;;;;9.25;2.80;;;7.80;99.90;;;;;;5052901;28;20135;-74
2024/03/21 04:54:51;;;;;;;7.05;2.72;;;7.80;99.90;;;;;;5070579;28;20047;-74
2024/03/21 04:57:16;;;;;;;7.22;2.10;;;7.60;99.90;;;;;;5070171;28;20121;-74
2024/03/21 04:59:42;;;;;;;8.25;2.67;;;7.60;99.90;;;;;;5069915;28;20072;-73
2024/03/21 05:02:08;;;;;;;11.07;2.90;;;7.60;99.90;;;;;;5070896;28;20044;-74
2024/03/21 05:04:34;;;;;;;11.18;2.95;;;7.60;99.90;;;;;;5070124;28;20048;-74
2024/03/21 05:06:59;;;;;;;9.52;2.78;;;7.60;99.90;;;;;;5069882;28;20492;-74
2024/03/21 05:09:25;;;;;;;8.18;2.47;;;7.60;99.90;;;;;;5069854;28;20094;-74
2024/03/21 05:11:51;;;;;;;7.43;2.70;;;7.60;99.90;;;;;;5069898;28;20632;-73
2024/03/21 05:14:16;;;;;;;12.13;2.65;;;7.60;99.90;;;;;;5070455;28;20105;-73
2024/03/21 05:16:44;;;;;;;8.95;2.40;;;7.60;99.90;;;;;;5054041;28;20075;-73
2024/03/21 05:19:11;;;;;;;5.90;2.22;;;7.70;99.90;;;;;;5070032;28;20053;-73
2024/03/21 05:21:37;;;;;;;5.25;2.30;;;7.70;99.90;;;;;;5069849;28;20040;-73
2024/03/21 05:24:02;;;;;;;6.18;1.90;;;7.70;99.90;;;;;;5069442;28;20458;-73
2024/03/21 05:26:28;;;;;;;8.50;2.28;;;7.70;99.90;;;;;;5069827;28;20455;-73
2024/03/21 05:28:54;;;;;;;3.63;1.50;;;7.70;99.90;;;;;;5071184;28;20036;-73
2024/03/21 05:31:21;;;;;;;7.32;2.00;;;7.70;99.90;;;;;;5095008;22;20037;-73
2024/03/21 05:33:50;;;;;;;7.00;2.22;;;7.90;99.90;;;;;;5051154;28;20068;-73
2024/03/21 05:36:16;;;;;;;5.13;1.77;;;7.90;99.90;;;;;;5052856;28;20036;-73
2024/03/21 05:38:44;;;;;;;5.57;1.70;;;7.80;99.90;;;;;;5070776;28;20488;-73
2024/03/21 05:41:10;;;;;;;6.20;2.30;;;7.90;99.90;;;;;;5052193;28;20047;-73
2024/03/21 05:43:35;;;;;;;7.00;2.35;;;7.90;99.90;;;;;;5068361;28;20029;-73
2024/03/21 05:46:01;;;;;;;4.57;2.05;;;7.90;99.90;;;;;;5070413;28;20064;-73
2024/03/21 05:48:27;;;;;;;8.35;2.42;;;7.90;99.90;;;;;;5073368;28;20051;-73
2024/03/21 05:50:53;;;;;;;4.45;1.63;;;7.90;99.90;;;;;;5073121;28;20032;-73
2024/03/21 05:53:18;;;;;;;9.18;2.42;;;8.00;99.90;;;;;;5073011;28;20106;-73
2024/03/21 05:56:17;;;;;;;7.10;2.15;;;8.00;99.90;;;;;;5072999;28;20046;-73
2024/03/21 05:58:43;;;;;;;5.22;1.75;;;8.00;99.90;;;;;;5030029;28;20052;-73
2024/03/21 06:03:40;;;;;;;6.78;1.77;;;8.10;99.90;;;;;;5074110;28;20469;-73
2024/03/21 06:06:06;;;;;;;9.32;3.45;;;8.10;99.90;;;;;;5073169;28;20090;-73
2024/03/21 06:08:32;;;;;;;9.85;2.60;;;8.10;99.90;;;;;;5073102;28;20036;-73
2024/03/21 06:10:57;;;;;;;8.75;3.45;;;8.10;99.90;;;;;;5056477;28;20032;-73
2024/03/21 06:13:23;;;;;;;15.93;3.50;;;8.10;99.90;;;;;;5055708;28;20032;-73
2024/03/21 06:15:49;;;;;;;12.70;4.00;;;8.10;99.90;;;;;;5056177;28;20081;-73
2024/03/21 06:18:15;;;;;;;12.27;3.70;;;8.10;99.90;;;;;;5074235;28;20055;-73
2024/03/21 06:20:41;;;;;;;16.35;3.63;;;8.10;99.90;;;;;;5072397;28;20037;-73
2024/03/21 06:23:07;;;;;;;14.38;4.47;;;8.10;99.90;;;;;;5072342;28;20049;-73
2024/03/21 06:25:33;;;;;;;12.55;4.18;;;8.10;99.90;;;;;;5056053;28;20055;-73
2024/03/21 06:27:59;;;;;;;13.02;4.53;;;8.00;99.90;;;;;;5072912;28;20082;-73
2024/03/21 06:30:24;;;;;;;12.45;4.43;;;8.10;99.90;;;;;;5072366;28;20083;-73
2024/03/21 06:32:50;;;;;;;8.18;3.40;;;8.00;99.90;;;;;;5055465;28;20037;-73
2024/03/21 06:35:15;;;;;;;10.07;3.97;;;8.00;99.90;;;;;;5072890;28;20063;-73
2024/03/21 06:37:41;;;;;;;10.90;4.40;;;8.00;99.90;;;;;;5072513;28;20056;-73
2024/03/21 06:40:08;;;;;;;12.77;4.22;;;8.00;99.90;;;;;;5072067;28;20506;-73
2024/03/21 06:42:34;;;;;;;9.68;3.80;;;8.00;99.90;;;;;;5072110;28;20036;-73
2024/03/21 06:45:01;;;;;;;9.70;3.92;;;7.80;99.90;;;;;;5072714;28;20036;-73
2024/03/21 06:47:27;;;;;;;11.93;4.90;;;8.00;99.90;;;;;;5073803;28;20044;-73
2024/03/21 06:49:56;;;;;;;14.70;4.47;;;7.90;99.90;;;;;;5072068;28;20081;-73
2024/03/21 06:52:23;;;;;;;13.20;4.57;;;7.90;99.90;;;;;;5073011;28;20044;-73
2024/03/21 06:54:48;;;;;;;8.75;4.50;;;7.90;99.90;;;;;;5073406;28;20043;-73
2024/03/21 06:57:14;;;;;;;10.32;4.05;;;7.90;99.90;;;;;;5071839;28;20040;-73
2024/03/21 06:59:40;;;;;;;11.57;3.95;;;7.80;99.90;;;;;;5072073;28;20407;-72
2024/03/21 07:02:06;;;;;;;13.60;4.68;;;7.90;99.90;;;;;;5071651;28;20554;-73
2024/03/21 07:04:32;;;;;;;8.35;3.17;;;8.00;99.90;;;;;;5073573;28;20047;-73
2024/03/21 07:06:58;;;;;;;12.32;3.97;;;7.90;99.90;;;;;;5073230;28;20028;-73
2024/03/21 07:09:23;;;;;;;11.68;4.45;;;7.90;99.90;;;;;;5071574;28;20047;-73
2024/03/21 07:11:49;;;;;;;9.70;3.17;;;8.00;99.90;;;;;;5072869;28;20048;-73
2024/03/21 07:14:15;;;;;;;7.72;2.75;;;7.90;99.90;;;;;;5071907;28;20531;-72
2024/03/21 07:16:41;;;;;;;6.50;2.20;;;7.90;99.90;;;;;;5072119;28;20050;-72
2024/03/21 07:19:08;;;;;;;9.93;3.20;;;7.90;99.90;;;;;;5071623;28;20127;-73
2024/03/21 07:21:33;;;;;;;6.47;2.00;;;8.00;99.90;;;;;;5072014;28;20127;-73
2024/03/21 07:23:59;;;;;;;6.13;2.15;;;8.10;99.90;;;;;;5071111;28;20492;-73
2024/03/21 07:26:24;;;;;;;6.72;2.10;;;8.00;99.90;;;;;;5071391;28;20048;-73
2024/03/21 07:28:50;;;;;;;13.80;2.50;;;8.10;99.90;;;;;;5071446;28;20074;-73
2024/03/21 07:31:16;;;;;;;9.48;2.63;;;8.00;99.90;;;;;;5071361;28;20492;-73
2024/03/21 07:33:43;;;;;;;11.65;2.75;;;8.00;99.90;;;;;;5054497;28;20047;-73
2024/03/21 07:36:09;;;;;;;10.52;2.95;;;8.00;99.90;;;;;;5071672;28;20123;-73
2024/03/21 07:38:34;;;;;;;10.20;2.72;;;7.90;99.90;;;;;;5071484;28;20139;-73
2024/03/21 07:41:01;;;;;;;10.32;2.60;;;8.00;99.90;;;;;;5071115;28;20500;-74
2024/03/21 07:43:27;;;;;;;6.03;2.35;;;8.10;99.90;;;;;;5070761;28;20036;-73
2024/03/21 07:45:53;;;;;;;11.05;1.90;;;8.00;99.90;;;;;;5054873;28;20397;-72
2024/03/21 07:48:19;;;;;;;9.52;2.30;;;7.80;99.90;;;;;;5072665;28;20033;-72
2024/03/21 07:50:45;;;;;;;6.20;2.40;;;7.90;99.90;;;;;;5071259;28;20101;-73
2024/03/21 07:53:11;;;;;;;10.68;1.92;;;8.00;99.90;;;;;;5038256;28;20119;-73
2024/03/21 07:55:37;;;;;;;6.55;2.03;;;8.00;99.90;;;;;;5051136;28;20139;-72
2024/03/21 07:58:06;;;;;;;5.93;2.15;;;8.20;99.90;;;;;;5034608;28;20183;-72
2024/03/21 08:00:32;;;;;;;8.70;2.45;;;8.10;99.90;;;;;;5050637;28;20047;-73
2024/03/21 08:02:58;;;;;;;14.00;2.80;;;8.20;99.90;;;;;;5050317;28;20036;-73
2024/03/21 08:05:23;;;;;;;11.52;2.60;;;8.30;99.90;;;;;;5051134;28;20037;-74
2024/03/21 08:07:49;;;;;;;10.02;2.97;;;8.30;99.90;;;;;;5050472;28;20127;-74
2024/03/21 08:10:15;;;;;;;7.85;1.95;;;8.20;99.90;;;;;;5050119;28;20068;-73
2024/03/21 08:12:41;;;;;;;10.32;2.85;;;8.40;99.90;;;;;;5050662;28;20106;-73
2024/03/21 08:15:08;;;;;;;14.02;2.65;;;8.30;99.90;;;;;;5050823;28;20051;-73
2024/03/21 08:17:33;;;;;;;10.45;2.85;;;8.30;99.90;;;;;;5052071;28;20048;-74
2024/03/21 08:20:00;;;;;;;10.27;3.55;;;8.40;99.90;;;;;;5051630;28;20033;-73
2024/03/21 08:22:26;;;;;;;12.50;4.57;;;8.50;99.90;;;;;;5049906;28;20040;-74
2024/03/21 08:24:51;;;;;;;9.25;2.95;;;8.60;99.90;;;;;;5034003;28;20120;-73
2024/03/21 08:27:19;;;;;;;8.30;2.53;;;8.60;99.90;;;;;;5050753;28;20048;-74
2024/03/21 08:29:50;;;;;;;9.98;2.33;;;8.60;99.90;;;;;;5033994;28;20047;-74
2024/03/21 08:32:21;;;;;;;10.10;2.95;;;8.70;99.90;;;;;;5051279;28;20045;-73
2024/03/21 08:34:47;;;;;;;7.28;2.70;;;8.80;99.90;;;;;;5050633;28;20063;-73
2024/03/21 08:37:14;;;;;;;5.93;2.15;;;9.10;99.90;;;;;;5059904;28;20119;-73
2024/03/21 08:39:40;;;;;;;7.15;2.88;;;9.30;99.90;;;;;;5069811;28;20047;-74
2024/03/21 08:42:06;;;;;;;7.47;2.10;;;9.10;99.90;;;;;;5071071;28;20116;-74
2024/03/21 08:44:32;;;;;;;5.22;1.88;;;9.30;99.90;;;;;;5070250;28;20117;-73
2024/03/21 08:46:58;;;;;;;8.90;2.10;;;9.40;99.90;;;;;;5071592;28;20037;-73
2024/03/21 08:49:24;;;;;;;12.93;2.40;;;9.40;99.90;;;;;;5069928;28;20562;-73
2024/03/21 08:51:50;;;;;;;11.82;3.05;;;9.30;99.90;;;;;;5066669;28;20055;-74
2024/03/21 08:54:16;;;;;;;8.15;3.13;;;9.40;99.90;;;;;;5060019;28;20117;-73
2024/03/21 08:56:41;;;;;;;11.90;2.92;;;9.40;99.90;;;;;;5058462;28;20483;-73
2024/03/21 08:59:07;;;;;;;11.32;2.50;;;9.30;99.90;;;;;;5050064;28;20040;-73
2024/03/21 09:01:32;;;;;;;7.40;2.72;;;9.20;99.90;;;;;;5071302;28;20105;-73
2024/03/21 09:03:58;;;;;;;7.30;2.95;;;9.20;99.90;;;;;;5063325;28;20049;-73
2024/03/21 09:06:24;;;;;;;9.07;2.58;;;9.20;99.90;;;;;;5060467;28;20032;-73
2024/03/21 09:08:49;;;;;;;12.40;3.10;;;9.20;99.90;;;;;;5049483;28;20143;-74
2024/03/21 09:11:15;;;;;;;9.15;3.00;;;9.20;99.90;;;;;;5051247;28;20479;-73
2024/03/21 09:13:40;;;;;;;7.47;2.90;;;9.20;99.90;;;;;;5049345;28;20044;-73
2024/03/21 09:16:07;;;;;;;6.75;2.85;;;9.20;99.90;;;;;;5049911;28;20037;-73
2024/03/21 09:18:33;;;;;;;10.15;2.78;;;9.10;99.90;;;;;;5049832;28;20052;-74
2024/03/21 09:21:02;;;;;;;4.57;2.10;;;9.10;99.90;;;;;;5052887;28;20033;-74
2024/03/21 09:23:31;;;;;;;6.47;2.65;;;9.10;99.90;;;;;;5053721;28;20044;-73
2024/03/21 09:25:59;;;;;;;8.13;2.53;;;9.20;99.90;;;;;;5055053;28;20499;-73
2024/03/21 09:28:25;;;;;;;7.78;2.58;;;9.30;99.90;;;;;;5053971;28;20040;-73
2024/03/21 09:30:51;;;;;;;4.75;2.00;;;9.40;99.90;;;;;;5036910;28;20053;-73
2024/03/21 09:33:17;;;;;;;7.13;2.50;;;9.40;99.90;;;;;;5044248;28;20538;-73
2024/03/21 09:35:43;;;;;;;8.40;2.58;;;9.30;99.90;;;;;;5059780;28;20064;-72
2024/03/21 09:38:09;;;;;;;11.02;2.70;;;9.40;99.90;;;;;;5042358;28;20041;-72
2024/03/21 09:40:38;;;;;;;15.38;3.00;;;9.40;99.90;;;;;;5058499;28;20049;-72
2024/03/21 09:43:05;;;;;;;7.78;2.50;;;9.20;99.90;;;;;;5062957;28;20036;-72
2024/03/21 09:45:33;;;;;;;8.68;2.70;;;9.30;99.90;;;;;;5047302;28;20401;-72
2024/03/21 09:47:59;;;;;;;11.60;3.20;;;9.20;99.90;;;;;;5062292;28;20528;-73
2024/03/21 09:50:25;;;;;;;5.55;2.83;;;9.10;99.90;;;;;;5065931;28;20126;-73
2024/03/21 09:52:51;;;;;;;6.85;2.20;;;9.20;99.90;;;;;;5061510;28;20068;-73
2024/03/21 09:55:18;;;;;;;7.55;2.78;;;9.20;99.90;;;;;;5063260;28;20172;-72
2024/03/21 09:57:44;;;;;;;6.15;2.85;;;9.20;99.90;;;;;;5039244;28;20043;-72
2024/03/21 10:00:12;;;;;;;5.50;2.25;;;9.30;99.90;;;;;;5053365;28;20049;-72
2024/03/21 10:02:38;;;;;;;5.28;2.22;;;9.40;99.90;;;;;;5062274;28;20075;-72
2024/03/21 10:05:06;;;;;;;6.80;2.50;;;9.40;99.90;;;;;;5047227;28;20408;-72
2024/03/21 10:07:36;;;;;;;6.90;3.10;;;9.40;99.90;;;;;;5063229;28;20489;-72
2024/03/21 10:10:02;;;;;;;6.78;2.80;;;9.40;99.90;;;;;;5061671;28;20036;-72
2024/03/21 10:12:28;;;;;;;8.85;2.65;;;9.40;99.90;;;;;;5063670;28;20356;-72
2024/03/21 10:14:57;;;;;;;13.55;3.50;;;9.40;99.90;;;;;;5057548;28;20041;-73
2024/03/21 10:17:26;;;;;;;11.18;2.95;;;9.50;99.90;;;;;;5052433;28;20091;-72
2024/03/21 10:19:52;;;;;;;10.45;3.28;;;9.50;99.90;;;;;;5057781;28;20488;-72
2024/03/21 10:22:22;;;;;;;8.13;2.75;;;9.60;99.90;;;;;;5058366;28;20067;-72
2024/03/21 10:24:55;;;;;;;5.68;2.88;;;9.50;99.90;;;;;;5041078;28;20408;-72
2024/03/21 10:27:22;;;;;;;9.38;3.25;;;9.40;99.90;;;;;;5060171;28;20477;-72
2024/03/21 10:29:52;;;;;;;7.00;3.03;;;9.50;99.90;;;;;;5060263;28;20578;-73
2024/03/21 10:32:20;;;;;;;12.15;3.63;;;9.50;99.90;;;;;;5056212;28;20508;-72
2024/03/21 10:34:51;;;;;;;8.82;2.70;;;9.50;99.90;;;;;;5059462;28;20044;-73
2024/03/21 10:37:18;;;;;;;10.85;3.28;;;9.50;99.90;;;;;;5061388;28;20044;-72
2024/03/21 10:39:45;;;;;;;10.65;2.65;;;9.50;99.90;;;;;;5058824;28;20040;-72
2024/03/21 10:42:27;;;;;;;9.35;3.03;;;9.50;99.90;;;;;;5059531;28;20131;-71
2024/03/21 10:44:57;;;;;;;10.07;4.05;;;9.50;99.90;;;;;;5052728;28;20061;-72
2024/03/21 10:47:25;;;;;;;10.15;3.25;;;9.50;99.90;;;;;;5056393;28;20036;-72
2024/03/21 10:49:51;;;;;;;11.90;3.92;;;9.50;99.90;;;;;;5058156;28;20531;-72
2024/03/21 10:52:17;;;;;;;12.60;4.22;;;9.40;99.90;;;;;;5055595;28;20076;-71
2024/03/21 10:54:48;;;;;;;11.32;3.60;;;9.40;99.90;;;;;;5035856;28;20051;-72
2024/03/21 10:57:18;;;;;;;14.68;4.75;;;9.40;99.90;;;;;;5058749;28;20043;-72
2024/03/21 10:59:55;;;;;;;8.82;3.28;;;9.40;99.90;;;;;;5058133;28;20041;-72
2024/03/21 11:02:20;;;;;;;9.60;3.25;;;9.30;99.90;;;;;;5060105;28;20029;-72
2024/03/21 11:04:46;;;;;;;7.20;2.97;;;9.40;99.90;;;;;;5058207;28;20039;-72
2024/03/21 11:07:17;;;;;;;8.63;4.18;;;9.40;99.90;;;;;;5051855;28;20069;-72
2024/03/21 11:09:45;;;;;;;6.60;2.55;;;9.20;99.90;;;;;;5051774;28;20593;-72
2024/03/21 11:12:11;;;;;;;9.50;3.63;;;9.30;99.90;;;;;;5065211;28;20032;-72
2024/03/21 11:14:38;;;;;;;8.63;3.05;;;9.20;99.90;;;;;;5071755;28;20048;-72
2024/03/21 11:17:05;;;;;;;7.05;2.95;;;9.20;99.90;;;;;;5072837;28;20135;-72
2024/03/21 11:19:31;;;;;;;8.00;4.03;;;9.20;99.90;;;;;;5071241;28;20045;-72
2024/03/21 11:21:57;;;;;;;7.57;3.10;;;9.20;99.90;;;;;;5072301;28;20059;-72
2024/03/21 11:24:23;;;;;;;7.25;2.90;;;9.30;99.90;;;;;;5072808;28;20033;-73
2024/03/21 11:26:49;;;;;;;9.63;2.83;;;9.30;99.90;;;;;;5071215;28;20055;-72
2024/03/21 11:29:15;;;;;;;6.57;3.50;;;9.40;99.90;;;;;;5048901;28;20044;-72
2024/03/21 11:31:42;;;;;;;7.68;2.80;;;9.40;99.90;;;;;;5074553;22;20045;-74
2024/03/21 11:34:09;;;;;;;8.23;3.13;;;9.40;99.90;;;;;;5073757;28;20089;-75
2024/03/21 11:36:35;;;;;;;7.20;2.60;;;9.50;99.90;;;;;;5075702;28;20040;-75
2024/03/21 11:39:02;;;;;;;11.15;3.53;;;9.50;99.90;;;;;;5072278;28;20415;-75
2024/03/21 11:41:29;;;;;;;8.23;3.38;;;9.50;99.90;;;;;;5071227;28;20381;-75
2024/03/21 11:43:55;;;;;;;8.07;2.70;;;9.50;99.90;;;;;;5052451;28;20051;-75
2024/03/21 11:46:23;;;;;;;15.18;4.30;;;9.40;99.90;;;;;;5052376;28;20413;-76
2024/03/21 11:49:14;;;;;;;8.05;3.20;;;9.50;99.90;;;;;;5051413;28;20044;-75
2024/03/21 11:51:40;;;;;;;8.57;3.85;;;9.40;99.90;;;;;;5034446;28;20144;-75
2024/03/21 11:54:08;;;;;;;11.85;3.95;;;9.50;99.90;;;;;;5033832;28;20544;-75
2024/03/21 11:56:37;;;;;;;10.00;3.50;;;9.40;99.90;;;;;;5050706;28;20109;-75
2024/03/21 11:59:04;;;;;;;12.27;3.95;;;9.40;99.90;;;;;;5051832;28;20068;-75
2024/03/21 12:01:29;;;;;;;7.85;3.25;;;9.40;99.90;;;;;;5059720;28;20028;-75
2024/03/21 12:03:55;;;;;;;7.28;3.00;;;9.40;99.90;;;;;;5050873;28;20039;-75
2024/03/21 12:06:21;;;;;;;10.85;3.55;;;9.40;99.90;;;;;;5051902;28;20041;-75
2024/03/21 12:08:49;;;;;;;9.60;2.88;;;9.40;99.90;;;;;;5051946;28;20048;-75
2024/03/21 12:11:17;;;;;;;16.02;3.03;;;9.40;99.90;;;;;;5064333;28;20033;-75
2024/03/21 12:13:43;;;;;;;10.38;3.42;;;9.50;99.90;;;;;;5071388;28;20424;-75
2024/03/21 12:16:12;;;;;;;8.98;3.03;;;9.50;99.90;;;;;;5070930;28;20093;-75
2024/03/21 12:18:38;;;;;;;8.00;3.35;;;9.50;99.90;;;;;;5070807;28;20036;-75
2024/03/21 12:21:04;;;;;;;9.27;3.35;;;9.40;99.90;;;;;;5067331;28;20028;-75
2024/03/21 12:23:30;;;;;;;7.97;3.28;;;9.30;99.90;;;;;;5049984;28;20559;-75
2024/03/21 12:25:56;;;;;;;10.68;3.72;;;9.40;99.90;;;;;;5060914;28;20039;-75
2024/03/21 12:28:27;;;;;;;8.80;4.03;;;9.30;99.90;;;;;;5067506;28;20392;-75
2024/03/21 12:30:54;;;;;;;8.35;3.25;;;9.30;99.90;;;;;;5070382;28;20438;-75
2024/03/21 12:33:19;;;;;;;5.43;3.03;;;9.30;99.90;;;;;;5063186;28;20063;-76
2024/03/21 12:35:45;;;;;;;6.88;3.17;;;9.30;99.90;;;;;;5063214;28;20044;-76
2024/03/21 12:38:11;;;;;;;8.32;3.13;;;9.30;99.90;;;;;;5070422;28;20028;-75
2024/03/21 12:40:36;;;;;;;5.43;3.30;;;9.30;99.90;;;;;;5069330;28;20048;-75
2024/03/21 12:43:04;;;;;;;5.70;2.65;;;9.40;99.90;;;;;;5071190;28;20035;-75
2024/03/21 12:45:30;;;;;;;7.53;3.03;;;9.40;99.90;;;;;;5070119;28;20456;-75
2024/03/21 12:47:56;;;;;;;5.50;2.83;;;9.40;99.90;;;;;;5058962;28;20033;-75
2024/03/21 12:50:21;;;;;;;6.95;3.28;;;9.50;99.90;;;;;;5057546;28;20032;-75